Time;durP1;ratioP1;P1;durP2;ratioP2;P2;SDS_P1;SDS_P2;PMS_P1;PMS_P2;Temp;Humidity;BMP_temperature;BMP_pressure;BME280_temperature;BME280_humidity;BME280_pressure;Samples;Min_cycle;Max_cycle;Signal;HPM_P1;HPM_P2
2021/03/13 00:00:44;;;;;;;1.23;1.13;;;5.20;99.90;;;;;;5012562;28;20548;-73
2021/03/13 00:03:09;;;;;;;1.30;1.10;;;5.30;99.90;;;;;;5011977;28;20219;-73
2021/03/13 00:05:41;;;;;;;1.90;1.40;;;5.20;99.90;;;;;;5015039;28;20266;-71
2021/03/13 00:08:08;;;;;;;1.57;1.27;;;5.30;99.90;;;;;;5032734;28;20250;-73
2021/03/13 00:10:35;;;;;;;1.47;1.37;;;5.30;99.90;;;;;;5006443;28;20493;-71
2021/03/13 00:13:01;;;;;;;2.03;1.30;;;5.30;99.90;;;;;;5012659;28;20415;-73
2021/03/13 00:15:26;;;;;;;2.67;1.20;;;5.20;99.90;;;;;;5012468;28;20462;-72
2021/03/13 00:17:54;;;;;;;1.20;1.07;;;5.30;99.90;;;;;;5030684;28;20195;-72
2021/03/13 00:20:23;;;;;;;1.30;1.20;;;5.30;99.90;;;;;;5032725;28;20156;-72
2021/03/13 00:22:49;;;;;;;1.20;1.10;;;5.30;99.90;;;;;;5021595;28;20418;-72
2021/03/13 00:25:15;;;;;;;3.33;1.30;;;5.30;99.90;;;;;;5012786;28;20764;-73
2021/03/13 00:27:47;;;;;;;4.60;2.70;;;5.20;99.90;;;;;;5012726;28;20169;-74
2021/03/13 00:30:30;;;;;;;2.70;1.20;;;5.30;99.90;;;;;;5012951;28;20782;-72
2021/03/13 00:33:01;;;;;;;1.30;1.20;;;5.30;99.90;;;;;;4994526;28;20498;-73
2021/03/13 00:35:28;;;;;;;2.10;1.53;;;5.40;99.90;;;;;;5012482;28;20457;-73
2021/03/13 00:37:54;;;;;;;2.73;1.33;;;5.40;99.90;;;;;;5012255;28;20478;-73
2021/03/13 00:40:22;;;;;;;2.50;2.03;;;5.40;99.90;;;;;;4989773;28;522282;-72
2021/03/13 00:42:51;;;;;;;3.27;1.47;;;5.40;99.90;;;;;;5013522;28;20180;-72
2021/03/13 00:45:19;;;;;;;1.97;1.67;;;5.40;99.90;;;;;;4994728;28;20451;-73
2021/03/13 00:47:46;;;;;;;3.03;1.33;;;5.40;99.90;;;;;;5013321;28;20411;-72
2021/03/13 00:50:13;;;;;;;1.57;1.33;;;5.30;99.90;;;;;;5013354;28;20411;-73
2021/03/13 00:52:39;;;;;;;1.80;1.33;;;5.30;99.90;;;;;;5013449;28;20427;-73
2021/03/13 00:55:06;;;;;;;2.80;1.40;;;5.30;99.90;;;;;;5012910;28;20459;-73
2021/03/13 00:57:32;;;;;;;1.73;1.63;;;5.30;99.90;;;;;;4995191;28;20196;-72
2021/03/13 00:59:57;;;;;;;1.77;1.40;;;5.20;99.90;;;;;;5013030;28;20443;-73
2021/03/13 01:02:23;;;;;;;2.60;1.47;;;5.20;99.90;;;;;;5012605;28;20176;-72
2021/03/13 01:04:48;;;;;;;2.00;1.70;;;5.20;99.90;;;;;;5012404;28;20188;-72
2021/03/13 01:07:14;;;;;;;1.87;1.67;;;5.20;99.90;;;;;;5012848;28;20177;-73
2021/03/13 01:09:39;;;;;;;2.47;1.93;;;5.20;99.90;;;;;;5012878;28;20191;-72
2021/03/13 01:12:08;;;;;;;3.90;2.20;;;5.30;99.90;;;;;;5012883;28;20176;-72
2021/03/13 01:14:33;;;;;;;2.70;2.40;;;5.30;99.90;;;;;;5012690;28;20714;-71
2021/03/13 01:16:59;;;;;;;1.80;1.40;;;5.30;99.90;;;;;;5012911;28;20399;-73
2021/03/13 01:19:24;;;;;;;8.27;2.20;;;5.30;99.90;;;;;;5013338;28;20168;-72
2021/03/13 01:21:50;;;;;;;3.40;2.20;;;5.30;99.90;;;;;;5012930;28;20530;-73
2021/03/13 01:24:16;;;;;;;1.73;1.63;;;5.30;99.90;;;;;;5012612;28;20192;-73
2021/03/13 01:26:42;;;;;;;2.47;2.10;;;5.30;99.90;;;;;;5012557;28;20531;-72
2021/03/13 01:29:07;;;;;;;3.23;1.83;;;5.30;99.90;;;;;;5013027;28;20180;-73
2021/03/13 01:31:33;;;;;;;3.40;2.13;;;5.30;99.90;;;;;;5013027;28;20406;-73
2021/03/13 01:33:58;;;;;;;4.63;2.87;;;5.30;99.90;;;;;;5012650;28;20254;-73
2021/03/13 01:36:24;;;;;;;3.73;3.00;;;5.30;99.90;;;;;;5012696;28;20633;-72
2021/03/13 01:38:50;;;;;;;3.13;2.80;;;5.30;99.90;;;;;;5012475;28;20196;-71
2021/03/13 01:41:22;;;;;;;4.33;3.13;;;5.20;99.90;;;;;;5012559;28;20676;-72
2021/03/13 01:43:50;;;;;;;3.90;3.10;;;5.30;99.90;;;;;;5020193;28;20471;-73
2021/03/13 01:46:16;;;;;;;7.37;4.60;;;5.20;99.90;;;;;;5030762;28;20425;-73
2021/03/13 01:48:46;;;;;;;4.83;3.37;;;5.20;99.90;;;;;;5032257;28;20410;-72
2021/03/13 01:51:14;;;;;;;3.67;2.27;;;5.20;99.90;;;;;;5032299;28;20167;-72
2021/03/13 01:53:40;;;;;;;3.47;2.27;;;5.20;99.90;;;;;;5031871;28;20469;-72
2021/03/13 01:56:05;;;;;;;3.57;2.37;;;5.20;99.90;;;;;;5032133;28;20454;-72
2021/03/13 01:58:31;;;;;;;3.23;1.63;;;5.20;99.90;;;;;;5032162;28;20257;-72
2021/03/13 02:00:57;;;;;;;3.80;2.20;;;5.20;99.90;;;;;;5015819;28;20214;-73
2021/03/13 02:03:22;;;;;;;7.83;2.33;;;5.20;99.90;;;;;;5012044;28;20422;-73
2021/03/13 02:05:51;;;;;;;3.10;2.73;;;5.20;99.90;;;;;;5012270;28;20586;-72
2021/03/13 02:08:40;;;;;;;2.93;2.23;;;5.20;99.90;;;;;;4994415;28;20183;-73
2021/03/13 02:11:27;;;;;;;3.97;2.27;;;5.20;99.90;;;;;;5012274;28;20767;-73
2021/03/13 02:14:02;;;;;;;2.57;2.37;;;5.20;99.90;;;;;;5011532;28;20486;-73
2021/03/13 02:16:39;;;;;;;2.40;1.97;;;5.20;99.90;;;;;;5003687;28;20418;-72
2021/03/13 02:19:49;;;;;;;4.77;2.70;;;5.30;99.90;;;;;;5012301;28;20391;-72
2021/03/13 02:22:21;;;;;;;2.50;2.30;;;5.20;99.90;;;;;;5012002;28;20411;-73
2021/03/13 02:25:28;;;;;;;3.60;2.03;;;5.10;99.90;;;;;;5012068;28;21198;-72
2021/03/13 02:28:05;;;;;;;2.30;2.10;;;5.10;99.90;;;;;;4988449;28;20427;-72
2021/03/13 02:30:32;;;;;;;5.30;2.20;;;5.10;99.90;;;;;;5011829;28;20486;-72
2021/03/13 02:33:04;;;;;;;4.10;2.10;;;5.00;99.90;;;;;;5012057;28;20495;-72
2021/03/13 02:35:44;;;;;;;3.00;1.70;;;5.00;99.90;;;;;;5012112;28;20947;-72
2021/03/13 02:38:13;;;;;;;2.33;2.00;;;5.00;99.90;;;;;;5012171;28;20399;-73
2021/03/13 02:40:43;;;;;;;5.40;2.13;;;5.00;99.90;;;;;;5013902;28;20486;-71
2021/03/13 02:43:13;;;;;;;6.30;2.00;;;5.00;99.90;;;;;;5029192;28;20427;-72
2021/03/13 02:45:44;;;;;;;5.10;2.70;;;5.00;99.90;;;;;;5029254;28;20422;-72
2021/03/13 02:48:12;;;;;;;3.10;2.80;;;5.00;99.90;;;;;;5013396;28;20427;-72
2021/03/13 02:50:41;;;;;;;3.33;3.00;;;5.00;99.90;;;;;;5012285;28;20415;-72
2021/03/13 02:53:07;;;;;;;5.87;3.40;;;5.00;99.90;;;;;;5011550;28;20454;-72
2021/03/13 02:55:34;;;;;;;3.93;3.53;;;5.00;99.90;;;;;;5012442;28;20463;-72
2021/03/13 02:58:03;;;;;;;6.37;2.97;;;5.10;99.90;;;;;;5012029;28;20877;-72
2021/03/13 03:00:34;;;;;;;7.63;2.73;;;5.10;99.90;;;;;;5011540;28;20430;-72
2021/03/13 03:03:00;;;;;;;3.50;2.67;;;5.20;99.90;;;;;;5011695;28;20441;-72
2021/03/13 03:05:27;;;;;;;3.93;3.40;;;5.20;99.90;;;;;;5011761;28;20445;-72
2021/03/13 03:08:00;;;;;;;4.37;3.40;;;5.30;99.90;;;;;;5012706;28;20502;-72
2021/03/13 03:10:29;;;;;;;2.60;2.40;;;5.30;99.90;;;;;;5015277;28;20423;-72
2021/03/13 03:12:56;;;;;;;3.17;2.67;;;5.30;99.90;;;;;;5015232;28;20408;-72
2021/03/13 03:15:26;;;;;;;5.87;2.33;;;5.30;99.90;;;;;;5015030;28;20549;-72
2021/03/13 03:17:54;;;;;;;3.47;2.63;;;5.30;99.90;;;;;;5015085;28;20779;-73
2021/03/13 03:20:20;;;;;;;4.23;2.70;;;5.30;99.90;;;;;;5015045;28;20507;-72
2021/03/13 03:22:49;;;;;;;4.80;2.80;;;5.20;99.90;;;;;;5006258;28;20478;-73
2021/03/13 03:25:15;;;;;;;3.57;2.80;;;5.20;99.90;;;;;;4995372;28;20494;-72
2021/03/13 03:27:53;;;;;;;3.13;2.27;;;5.20;99.90;;;;;;4995407;28;20452;-72
2021/03/13 03:30:23;;;;;;;5.53;2.73;;;5.20;99.90;;;;;;5013598;28;20179;-72
2021/03/13 03:32:49;;;;;;;5.30;2.63;;;5.10;99.90;;;;;;5014900;28;20407;-72
2021/03/13 03:35:16;;;;;;;4.10;2.57;;;5.10;99.90;;;;;;5014903;28;20458;-71
2021/03/13 03:37:41;;;;;;;2.70;2.17;;;5.00;99.90;;;;;;5014494;28;20869;-71
2021/03/13 03:40:08;;;;;;;2.47;1.70;;;5.00;99.90;;;;;;5014679;28;20473;-71
2021/03/13 03:42:37;;;;;;;2.10;1.90;;;4.90;99.90;;;;;;5014775;28;20172;-72
2021/03/13 03:45:04;;;;;;;2.30;2.10;;;4.90;99.90;;;;;;5014344;28;20457;-72
2021/03/13 03:47:31;;;;;;;2.73;1.97;;;4.90;99.90;;;;;;5014268;28;20411;-72
2021/03/13 03:49:56;;;;;;;4.40;2.20;;;4.90;99.90;;;;;;5014622;28;20418;-72
2021/03/13 03:52:24;;;;;;;3.50;2.07;;;4.90;99.90;;;;;;5014207;28;20439;-72
2021/03/13 03:54:53;;;;;;;4.23;2.27;;;4.90;99.90;;;;;;5014388;28;20262;-73
2021/03/13 03:57:20;;;;;;;2.30;2.10;;;4.90;99.90;;;;;;5014116;28;20902;-73
2021/03/13 03:59:50;;;;;;;2.50;1.50;;;4.90;99.90;;;;;;5014031;28;20426;-72
2021/03/13 04:02:18;;;;;;;3.90;2.00;;;4.90;99.90;;;;;;5014116;28;20494;-73
2021/03/13 04:04:44;;;;;;;2.70;2.00;;;4.90;99.90;;;;;;5014204;28;20462;-72
2021/03/13 04:07:09;;;;;;;2.20;2.00;;;4.80;99.90;;;;;;5014022;28;20416;-72
2021/03/13 04:09:36;;;;;;;2.73;2.53;;;4.80;99.90;;;;;;5014339;28;20633;-72
2021/03/13 04:12:04;;;;;;;2.80;1.90;;;4.90;99.90;;;;;;5014077;28;20175;-72
2021/03/13 04:14:36;;;;;;;2.40;1.77;;;4.90;99.90;;;;;;5014077;28;21029;-72
2021/03/13 04:17:03;;;;;;;2.50;1.90;;;4.90;99.90;;;;;;5024657;28;20429;-71
2021/03/13 04:19:29;;;;;;;2.40;2.10;;;4.80;99.90;;;;;;5032415;28;20424;-73
2021/03/13 04:21:55;;;;;;;3.03;1.70;;;4.80;99.90;;;;;;5018280;28;20481;-72
2021/03/13 04:24:21;;;;;;;2.17;1.97;;;4.80;99.90;;;;;;5012434;28;20443;-72
2021/03/13 04:26:47;;;;;;;2.67;2.47;;;4.80;99.90;;;;;;5013568;28;20415;-71
2021/03/13 04:29:13;;;;;;;2.00;1.80;;;4.80;99.90;;;;;;5013897;28;20469;-72
2021/03/13 04:31:40;;;;;;;4.70;2.60;;;4.70;99.90;;;;;;5013780;28;20176;-72
2021/03/13 04:34:08;;;;;;;3.07;1.97;;;4.70;99.90;;;;;;5013583;28;20498;-72
2021/03/13 04:36:33;;;;;;;2.40;2.20;;;4.70;99.90;;;;;;5013438;28;20818;-73
2021/03/13 04:39:02;;;;;;;2.60;2.40;;;4.80;99.90;;;;;;5013529;28;20403;-72
2021/03/13 04:41:28;;;;;;;2.43;2.23;;;4.80;99.90;;;;;;5013664;28;20173;-72
2021/03/13 04:43:57;;;;;;;4.80;2.40;;;4.80;99.90;;;;;;5028594;28;20446;-72
2021/03/13 04:46:24;;;;;;;5.10;2.27;;;4.80;99.90;;;;;;5013791;28;20426;-73
2021/03/13 04:48:53;;;;;;;2.03;1.60;;;4.90;99.90;;;;;;5013279;28;20422;-72
2021/03/13 04:51:19;;;;;;;1.83;1.70;;;4.90;99.90;;;;;;5013380;28;20430;-72
2021/03/13 04:53:48;;;;;;;3.43;1.77;;;5.00;99.90;;;;;;5013108;28;20463;-73
2021/03/13 04:56:14;;;;;;;1.93;1.77;;;5.00;99.90;;;;;;5013239;28;20180;-72
2021/03/13 04:58:40;;;;;;;2.07;1.73;;;5.00;99.90;;;;;;5013585;28;20399;-74
2021/03/13 05:01:05;;;;;;;2.07;1.70;;;5.00;99.90;;;;;;5013127;28;20415;-72
2021/03/13 05:03:31;;;;;;;3.00;1.73;;;5.00;99.90;;;;;;5012943;28;20834;-72
2021/03/13 05:05:57;;;;;;;2.43;1.87;;;5.00;99.90;;;;;;5013005;28;20667;-73
2021/03/13 05:08:22;;;;;;;3.07;2.17;;;5.10;99.90;;;;;;5012872;28;20469;-72
2021/03/13 05:10:48;;;;;;;1.87;1.73;;;5.10;99.90;;;;;;5012923;28;20500;-72
2021/03/13 05:13:13;;;;;;;2.00;1.80;;;5.10;99.90;;;;;;5013031;28;20192;-72
2021/03/13 05:15:39;;;;;;;4.60;2.27;;;5.10;99.90;;;;;;5012777;28;20612;-72
2021/03/13 05:18:04;;;;;;;2.00;1.77;;;5.00;99.90;;;;;;5012815;28;20168;-71
2021/03/13 05:20:30;;;;;;;3.37;2.00;;;5.00;99.90;;;;;;5013189;28;20166;-71
2021/03/13 05:22:56;;;;;;;2.20;1.80;;;4.90;99.90;;;;;;5010596;28;20195;-72
2021/03/13 05:25:21;;;;;;;4.43;2.27;;;5.00;99.90;;;;;;5002435;28;20547;-72
2021/03/13 05:27:47;;;;;;;3.80;1.80;;;5.00;99.90;;;;;;4993061;28;20169;-72
2021/03/13 05:30:15;;;;;;;2.47;1.93;;;5.00;99.90;;;;;;5009832;28;20180;-73
2021/03/13 05:32:43;;;;;;;2.03;1.83;;;4.90;99.90;;;;;;5012935;28;20175;-72
2021/03/13 05:35:11;;;;;;;2.50;2.23;;;5.00;99.90;;;;;;5012427;28;20455;-73
2021/03/13 05:37:37;;;;;;;3.57;2.03;;;4.90;99.90;;;;;;5012703;28;20934;-72
2021/03/13 05:40:05;;;;;;;2.20;2.00;;;5.00;99.90;;;;;;5012688;28;20477;-72
2021/03/13 05:42:31;;;;;;;5.00;1.93;;;5.00;99.90;;;;;;5012588;28;20411;-72
2021/03/13 05:44:58;;;;;;;3.23;1.60;;;5.00;99.90;;;;;;5012512;28;20423;-72
2021/03/13 05:47:25;;;;;;;2.13;1.93;;;5.00;99.90;;;;;;5012549;28;20514;-71
2021/03/13 05:50:01;;;;;;;3.20;1.70;;;5.00;99.90;;;;;;5012467;28;20411;-72
2021/03/13 05:52:32;;;;;;;3.83;2.00;;;5.00;99.90;;;;;;5012743;28;20403;-72
2021/03/13 05:54:59;;;;;;;4.53;1.90;;;5.10;99.90;;;;;;5012402;28;20460;-72
2021/03/13 05:57:25;;;;;;;1.93;1.70;;;5.10;99.90;;;;;;5012240;28;20427;-72
2021/03/13 05:59:54;;;;;;;2.63;2.10;;;5.10;99.90;;;;;;5012300;28;20438;-73
2021/03/13 06:02:22;;;;;;;2.77;2.20;;;5.20;99.90;;;;;;5012646;28;20195;-72
2021/03/13 06:04:52;;;;;;;3.27;2.00;;;5.20;99.90;;;;;;5012340;28;20478;-70
2021/03/13 06:07:23;;;;;;;2.10;2.00;;;5.30;99.90;;;;;;5012484;28;20815;-71
2021/03/13 06:09:56;;;;;;;2.83;1.87;;;5.30;99.90;;;;;;5012564;28;20439;-72
2021/03/13 06:12:22;;;;;;;3.07;2.10;;;5.40;99.90;;;;;;5012984;28;20395;-72
2021/03/13 06:14:55;;;;;;;2.07;1.87;;;5.50;99.90;;;;;;5012707;28;20963;-72
2021/03/13 06:17:23;;;;;;;2.13;1.70;;;5.50;99.90;;;;;;5012061;28;20407;-72
2021/03/13 06:19:58;;;;;;;2.63;2.43;;;5.50;99.90;;;;;;5012619;28;20881;-73
2021/03/13 06:22:44;;;;;;;3.93;2.27;;;5.60;99.90;;;;;;5012239;28;20415;-72
2021/03/13 06:25:16;;;;;;;3.57;1.87;;;5.70;99.90;;;;;;5011683;28;20451;-72
2021/03/13 06:27:59;;;;;;;3.80;1.87;;;5.70;99.90;;;;;;5012255;28;20407;-72
2021/03/13 06:30:30;;;;;;;3.03;2.33;;;5.70;99.90;;;;;;5012610;28;20403;-72
2021/03/13 06:32:55;;;;;;;2.53;2.33;;;5.80;99.90;;;;;;5012434;28;20400;-71
2021/03/13 06:35:26;;;;;;;3.33;2.63;;;5.90;99.90;;;;;;5012512;28;21010;-73
2021/03/13 06:37:53;;;;;;;2.00;1.80;;;6.00;99.90;;;;;;5010598;28;20160;-72
2021/03/13 06:40:28;;;;;;;4.30;2.23;;;6.00;99.90;;;;;;5012924;28;20450;-73
2021/03/13 06:42:54;;;;;;;2.73;2.30;;;6.10;99.90;;;;;;5013371;28;20425;-73
2021/03/13 06:45:22;;;;;;;2.17;1.97;;;6.20;99.90;;;;;;5019771;28;20442;-72
2021/03/13 06:47:48;;;;;;;2.17;1.97;;;6.30;99.90;;;;;;5021409;28;20937;-72
2021/03/13 06:50:16;;;;;;;3.03;2.73;;;6.30;99.90;;;;;;5024398;28;20486;-73
2021/03/13 06:52:44;;;;;;;3.30;2.40;;;6.40;99.90;;;;;;5018319;28;20433;-72
2021/03/13 06:55:36;;;;;;;3.10;2.80;;;6.50;99.90;;;;;;5004960;28;21100;-73
2021/03/13 06:58:10;;;;;;;3.17;2.33;;;6.50;99.90;;;;;;4993258;28;20486;-72
2021/03/13 07:00:37;;;;;;;2.10;1.90;;;6.50;99.90;;;;;;4996115;28;20407;-72
2021/03/13 07:03:10;;;;;;;3.37;2.47;;;6.50;99.90;;;;;;4995444;28;20431;-72
2021/03/13 07:05:43;;;;;;;2.53;2.07;;;6.50;99.90;;;;;;5008951;28;20423;-73
2021/03/13 07:08:28;;;;;;;4.13;2.20;;;6.50;99.90;;;;;;5015440;28;20419;-72
2021/03/13 07:11:21;;;;;;;3.10;1.93;;;6.60;99.90;;;;;;5014458;28;20407;-72
2021/03/13 07:13:56;;;;;;;1.93;1.83;;;6.70;99.90;;;;;;4995468;28;20483;-73
2021/03/13 07:16:29;;;;;;;2.27;1.83;;;6.70;99.90;;;;;;4989141;28;20919;-73
2021/03/13 07:19:01;;;;;;;2.80;2.00;;;6.70;99.90;;;;;;5034877;28;20460;-73
2021/03/13 07:21:29;;;;;;;3.30;1.70;;;6.70;99.90;;;;;;5034981;28;20406;-71
2021/03/13 07:24:08;;;;;;;3.70;1.63;;;6.70;99.90;;;;;;5034521;28;20449;-72
2021/03/13 07:26:37;;;;;;;1.90;1.80;;;6.80;99.90;;;;;;5026486;28;20772;-73
2021/03/13 07:29:05;;;;;;;2.63;2.10;;;6.80;99.90;;;;;;5014743;28;20411;-72
2021/03/13 07:31:35;;;;;;;4.73;2.07;;;6.90;99.90;;;;;;5014880;28;20417;-73
2021/03/13 07:34:03;;;;;;;3.87;2.57;;;6.80;99.90;;;;;;5014979;28;20453;-73
2021/03/13 07:36:38;;;;;;;2.60;1.87;;;6.80;99.90;;;;;;4997593;28;20431;-71
2021/03/13 07:39:20;;;;;;;3.90;1.93;;;6.70;99.90;;;;;;4978927;28;20407;-73
2021/03/13 07:42:16;;;;;;;2.40;1.93;;;6.70;99.90;;;;;;4979347;28;20960;-73
2021/03/13 07:44:43;;;;;;;1.90;1.80;;;6.80;99.90;;;;;;5010750;28;20439;-73
2021/03/13 07:47:14;;;;;;;3.80;2.50;;;6.80;99.90;;;;;;5014001;28;20463;-73
2021/03/13 07:49:40;;;;;;;4.20;3.67;;;6.80;99.90;;;;;;5015065;28;20502;-74
2021/03/13 07:52:08;;;;;;;3.33;3.03;;;6.70;99.90;;;;;;5014303;28;20411;-72
2021/03/13 07:54:38;;;;;;;4.40;3.67;;;6.80;99.90;;;;;;5013876;28;20549;-71
2021/03/13 07:57:05;;;;;;;5.10;4.17;;;6.80;99.90;;;;;;5014253;28;20482;-72
2021/03/13 07:59:44;;;;;;;10.17;6.67;;;6.80;99.90;;;;;;5014180;28;20435;-72
2021/03/13 08:02:29;;;;;;;11.30;4.50;;;6.70;99.90;;;;;;5014552;28;20768;-71
2021/03/13 08:05:12;;;;;;;4.97;3.40;;;6.60;99.90;;;;;;5014119;28;20817;-72
2021/03/13 08:07:58;;;;;;;10.50;5.83;;;6.60;99.90;;;;;;5014187;28;20408;-71
2021/03/13 08:10:47;;;;;;;8.13;6.37;;;6.70;99.90;;;;;;5014459;28;20494;-72
2021/03/13 08:13:30;;;;;;;12.77;7.90;;;6.70;99.90;;;;;;5013921;28;20404;-71
2021/03/13 08:16:06;;;;;;;4.97;3.60;;;6.90;99.90;;;;;;5015586;28;20413;-73
2021/03/13 08:18:39;;;;;;;7.13;4.07;;;6.60;99.90;;;;;;5016099;28;20444;-73
2021/03/13 08:21:40;;;;;;;4.70;4.00;;;6.50;99.90;;;;;;5033937;28;20485;-70
2021/03/13 08:24:09;;;;;;;6.27;5.07;;;6.50;99.90;;;;;;5033786;28;20433;-72
2021/03/13 08:26:34;;;;;;;7.83;6.93;;;6.40;99.90;;;;;;5033870;28;20438;-73
2021/03/13 08:29:04;;;;;;;4.57;4.17;;;6.40;99.90;;;;;;5013735;28;20822;-73
2021/03/13 08:31:41;;;;;;;4.97;4.50;;;6.40;99.90;;;;;;5006784;28;20173;-72
2021/03/13 08:34:18;;;;;;;4.80;4.40;;;6.40;99.90;;;;;;5014310;28;20481;-73
2021/03/13 08:36:46;;;;;;;3.60;3.30;;;6.50;99.90;;;;;;4995987;28;20418;-73
2021/03/13 08:39:23;;;;;;;4.13;3.83;;;6.40;99.90;;;;;;5013846;28;20415;-73
2021/03/13 08:41:51;;;;;;;3.23;2.93;;;6.50;99.90;;;;;;5014785;28;20506;-74
2021/03/13 08:44:25;;;;;;;3.43;3.23;;;6.40;99.90;;;;;;4999147;28;20438;-75
2021/03/13 08:46:58;;;;;;;6.00;4.80;;;6.50;99.90;;;;;;5024421;28;20569;-75
2021/03/13 08:49:27;;;;;;;9.70;7.40;;;6.50;99.90;;;;;;5035749;28;20421;-74
2021/03/13 08:52:05;;;;;;;10.47;5.63;;;6.60;99.90;;;;;;4998452;28;20971;-73
2021/03/13 08:54:39;;;;;;;4.43;3.80;;;6.50;99.90;;;;;;4994179;28;20828;-73
2021/03/13 08:57:18;;;;;;;3.40;3.10;;;6.50;99.90;;;;;;4993707;28;20403;-73
2021/03/13 09:00:06;;;;;;;4.17;3.07;;;6.50;99.90;;;;;;4993678;28;20930;-72
2021/03/13 09:02:37;;;;;;;4.00;3.50;;;6.60;99.90;;;;;;4976631;28;20428;-73
2021/03/13 09:05:09;;;;;;;10.83;9.10;;;6.60;99.90;;;;;;4996522;28;20457;-73
2021/03/13 09:07:35;;;;;;;6.10;4.87;;;6.60;99.90;;;;;;5013070;28;20411;-74
2021/03/13 09:10:02;;;;;;;4.80;4.20;;;6.70;99.90;;;;;;5013154;28;20425;-71
2021/03/13 09:12:30;;;;;;;6.13;4.17;;;6.60;99.90;;;;;;5012968;28;20179;-72
2021/03/13 09:14:59;;;;;;;4.13;3.57;;;6.60;99.90;;;;;;5012884;28;20493;-73
2021/03/13 09:17:29;;;;;;;3.57;3.27;;;6.70;99.90;;;;;;5013047;28;20415;-73
2021/03/13 09:19:59;;;;;;;2.50;2.30;;;6.70;99.90;;;;;;4995691;28;20415;-73
2021/03/13 09:22:28;;;;;;;3.17;2.87;;;6.60;99.90;;;;;;5013188;28;20973;-74
2021/03/13 09:24:56;;;;;;;4.10;2.70;;;6.60;99.90;;;;;;5012909;28;20431;-73
2021/03/13 09:27:26;;;;;;;2.80;2.60;;;6.50;99.90;;;;;;5012813;28;20413;-74
2021/03/13 09:29:53;;;;;;;3.27;2.97;;;6.40;99.90;;;;;;4995285;28;20447;-75
2021/03/13 09:32:20;;;;;;;6.10;3.07;;;6.50;99.90;;;;;;5012743;28;20399;-73
2021/03/13 09:34:47;;;;;;;4.97;3.00;;;6.40;99.90;;;;;;4994956;28;20542;-74
2021/03/13 09:37:16;;;;;;;4.27;3.30;;;6.40;99.90;;;;;;4995019;28;20499;-74
2021/03/13 09:39:47;;;;;;;3.53;3.23;;;6.50;99.90;;;;;;5012619;28;20425;-74
2021/03/13 09:42:18;;;;;;;3.60;3.30;;;6.50;99.90;;;;;;5007199;28;20408;-74
2021/03/13 09:44:48;;;;;;;4.20;3.37;;;6.50;99.90;;;;;;4998945;28;20828;-73
2021/03/13 09:47:16;;;;;;;6.80;4.17;;;6.60;99.90;;;;;;5013201;28;20435;-75
2021/03/13 09:49:43;;;;;;;3.23;2.93;;;6.60;99.90;;;;;;5013940;28;20408;-78
2021/03/13 09:52:09;;;;;;;5.10;3.17;;;6.70;99.90;;;;;;5013377;28;20426;-73
2021/03/13 09:54:34;;;;;;;5.43;3.90;;;6.70;99.90;;;;;;5012921;28;20459;-74
2021/03/13 09:57:08;;;;;;;8.83;5.50;;;6.80;99.90;;;;;;5012374;28;20255;-74
2021/03/13 09:59:34;;;;;;;4.10;3.43;;;7.00;99.90;;;;;;5012218;28;20222;-73
2021/03/13 10:01:59;;;;;;;2.80;2.60;;;6.90;99.90;;;;;;5012399;28;20487;-73
2021/03/13 10:04:25;;;;;;;4.70;3.50;;;7.00;99.90;;;;;;5012148;28;20431;-73
2021/03/13 10:06:51;;;;;;;6.37;3.60;;;7.10;99.90;;;;;;5012118;28;20250;-73
2021/03/13 10:09:16;;;;;;;4.47;4.07;;;7.20;99.90;;;;;;5012061;28;20447;-72
2021/03/13 10:11:43;;;;;;;5.67;3.67;;;7.10;99.90;;;;;;5012018;28;20176;-72
2021/03/13 10:14:20;;;;;;;3.57;3.23;;;7.10;99.90;;;;;;5011931;28;20200;-71
2021/03/13 10:16:46;;;;;;;4.30;3.90;;;7.20;99.90;;;;;;5021935;28;20424;-75
2021/03/13 10:19:40;;;;;;;5.47;2.37;;;7.10;99.90;;;;;;5036431;28;20771;-75
2021/03/13 10:22:10;;;;;;;3.50;2.57;;;7.20;99.90;;;;;;5029863;28;20411;-73
2021/03/13 10:24:53;;;;;;;2.67;2.40;;;7.40;99.90;;;;;;5027548;28;20800;-73
2021/03/13 10:27:24;;;;;;;5.60;3.93;;;7.40;99.90;;;;;;5035552;28;20933;-73
2021/03/13 10:30:01;;;;;;;4.40;2.73;;;7.60;99.90;;;;;;5035647;28;20524;-73
2021/03/13 10:32:29;;;;;;;2.43;2.23;;;7.60;99.90;;;;;;5035916;28;20417;-73
2021/03/13 10:35:05;;;;;;;2.23;1.80;;;7.60;99.90;;;;;;5035523;28;20458;-73
2021/03/13 10:37:40;;;;;;;3.00;1.70;;;7.70;99.90;;;;;;5035557;28;20408;-73
2021/03/13 10:40:08;;;;;;;13.90;4.53;;;7.70;99.90;;;;;;5035515;28;20434;-74
2021/03/13 10:42:39;;;;;;;3.17;2.67;;;7.70;99.90;;;;;;5035967;28;20467;-74
2021/03/13 10:45:16;;;;;;;3.70;2.43;;;7.80;99.90;;;;;;5034391;28;20526;-74
2021/03/13 10:47:44;;;;;;;3.13;2.83;;;7.80;99.90;;;;;;5016948;28;20783;-75
2021/03/13 10:50:10;;;;;;;2.07;1.90;;;8.00;99.90;;;;;;5024724;28;20486;-74
2021/03/13 10:52:36;;;;;;;3.40;2.10;;;8.00;99.90;;;;;;5017519;28;20844;-74
2021/03/13 10:55:02;;;;;;;2.70;2.50;;;8.00;99.90;;;;;;5019833;28;20274;-74
2021/03/13 10:57:27;;;;;;;1.87;1.40;;;8.00;99.90;;;;;;4998883;28;20173;-77
2021/03/13 10:59:53;;;;;;;2.87;2.23;;;8.00;99.90;;;;;;5001695;28;20476;-74
2021/03/13 11:02:18;;;;;;;1.57;1.47;;;7.90;99.90;;;;;;4981407;28;20267;-73
2021/03/13 11:04:44;;;;;;;4.80;1.20;;;8.00;99.90;;;;;;4978790;28;20289;-73
2021/03/13 11:07:09;;;;;;;1.83;1.37;;;8.00;99.90;;;;;;5013107;28;20184;-74
2021/03/13 11:09:35;;;;;;;2.40;2.10;;;8.00;99.90;;;;;;5015555;28;20186;-74
2021/03/13 11:12:00;;;;;;;1.53;1.43;;;8.10;99.90;;;;;;5015788;28;20231;-74
2021/03/13 11:14:26;;;;;;;2.00;1.53;;;8.00;99.90;;;;;;5015519;28;20200;-73
2021/03/13 11:16:52;;;;;;;3.07;1.40;;;8.10;99.90;;;;;;5024560;28;20171;-73
2021/03/13 11:19:17;;;;;;;1.53;1.33;;;8.30;99.90;;;;;;5035050;28;20195;-73
2021/03/13 11:21:43;;;;;;;1.73;1.63;;;8.30;99.90;;;;;;5013771;28;20213;-73
2021/03/13 11:24:09;;;;;;;2.13;1.40;;;8.30;99.90;;;;;;5015104;28;20250;-73
2021/03/13 11:26:35;;;;;;;1.50;1.10;;;8.40;99.90;;;;;;5003059;28;20196;-74
2021/03/13 11:29:00;;;;;;;1.53;1.40;;;8.40;99.90;;;;;;4994776;28;20759;-72
2021/03/13 11:31:26;;;;;;;1.47;1.30;;;8.40;99.90;;;;;;4995340;28;20173;-73
2021/03/13 11:33:51;;;;;;;1.20;1.10;;;8.30;99.90;;;;;;4995216;28;20201;-72
2021/03/13 11:36:17;;;;;;;2.07;1.50;;;8.50;99.90;;;;;;4995191;28;20177;-73
2021/03/13 11:38:43;;;;;;;4.97;4.17;;;8.70;99.90;;;;;;4997916;28;20598;-73
2021/03/13 11:41:12;;;;;;;9.57;2.53;;;8.80;99.90;;;;;;5014445;28;20485;-73
2021/03/13 11:43:41;;;;;;;1.70;1.10;;;8.70;99.90;;;;;;5014488;28;20194;-73
2021/03/13 11:46:08;;;;;;;1.47;1.37;;;8.60;99.90;;;;;;5013032;28;20415;-73
2021/03/13 11:48:34;;;;;;;4.27;2.17;;;9.00;99.90;;;;;;5025209;28;20414;-74
2021/03/13 11:51:00;;;;;;;2.50;1.60;;;9.00;99.90;;;;;;5034536;28;20441;-73
2021/03/13 11:53:25;;;;;;;1.63;1.53;;;9.20;99.90;;;;;;5034338;28;20226;-74
2021/03/13 11:55:51;;;;;;;2.63;2.13;;;9.30;99.90;;;;;;5034411;28;20249;-74
2021/03/13 11:58:19;;;;;;;1.90;1.80;;;9.30;99.90;;;;;;5034098;28;20863;-73
2021/03/13 12:00:45;;;;;;;3.00;2.13;;;9.40;99.90;;;;;;5034297;28;20163;-72
2021/03/13 12:03:10;;;;;;;3.23;2.17;;;9.50;99.90;;;;;;5033248;28;20413;-72
2021/03/13 12:05:36;;;;;;;2.63;2.10;;;9.70;99.90;;;;;;5034035;28;20430;-73
2021/03/13 12:08:02;;;;;;;1.43;1.33;;;10.00;99.90;;;;;;5038024;28;20306;-73
2021/03/13 12:10:27;;;;;;;3.10;2.47;;;10.20;99.90;;;;;;5041660;28;20495;-73
2021/03/13 12:12:53;;;;;;;1.20;1.10;;;10.30;99.90;;;;;;5039621;28;20170;-73
2021/03/13 12:15:19;;;;;;;2.40;1.70;;;10.40;99.90;;;;;;5039681;28;20283;-72
2021/03/13 12:17:44;;;;;;;1.77;1.30;;;10.60;99.90;;;;;;5018284;28;20195;-72
2021/03/13 12:20:11;;;;;;;3.10;1.47;;;10.70;99.90;;;;;;5014173;28;20443;-72
2021/03/13 12:22:37;;;;;;;5.70;1.50;;;10.70;99.90;;;;;;5024863;28;20182;-73
2021/03/13 12:25:05;;;;;;;1.47;1.33;;;10.50;99.90;;;;;;5025492;28;20463;-73
2021/03/13 12:27:30;;;;;;;1.47;0.97;;;10.70;99.90;;;;;;5029312;28;20407;-73
2021/03/13 12:29:56;;;;;;;4.67;2.10;;;10.80;99.90;;;;;;5014555;28;20809;-72
2021/03/13 12:32:21;;;;;;;1.63;1.20;;;10.90;99.90;;;;;;5013654;28;20602;-72
2021/03/13 12:34:47;;;;;;;1.87;1.70;;;10.90;99.90;;;;;;4995915;28;20740;-72
2021/03/13 12:37:13;;;;;;;1.67;1.27;;;11.00;99.90;;;;;;5013464;28;20836;-72
2021/03/13 12:40:00;;;;;;;1.80;1.20;;;11.00;99.90;;;;;;5012700;28;20188;-72
2021/03/13 12:42:28;;;;;;;1.33;1.23;;;11.00;99.90;;;;;;4995320;28;20497;-72
2021/03/13 12:44:53;;;;;;;5.93;1.73;;;10.90;99.90;;;;;;5013057;28;20430;-71
2021/03/13 12:47:19;;;;;;;5.57;1.80;;;10.90;99.90;;;;;;4993687;28;20423;-73
2021/03/13 12:49:45;;;;;;;1.80;1.13;;;10.90;99.90;;;;;;4993494;28;20573;-72
2021/03/13 12:52:10;;;;;;;3.93;1.27;;;11.00;99.90;;;;;;4998667;28;20400;-71
2021/03/13 12:54:36;;;;;;;2.50;1.43;;;11.00;99.90;;;;;;5017643;28;20360;-73
2021/03/13 12:57:02;;;;;;;2.40;2.00;;;10.90;99.90;;;;;;5008554;28;20590;-72
2021/03/13 12:59:27;;;;;;;2.00;1.17;;;11.10;99.90;;;;;;5012581;28;20176;-74
2021/03/13 13:01:53;;;;;;;1.20;0.93;;;11.20;99.90;;;;;;5012898;28;20164;-74
2021/03/13 13:04:18;;;;;;;1.07;0.97;;;11.00;99.90;;;;;;5012727;28;20196;-73
2021/03/13 13:06:44;;;;;;;1.40;1.20;;;11.00;99.90;;;;;;5012862;28;20196;-72